Time;durP1;ratioP1;P1;durP2;ratioP2;P2;SDS_P1;SDS_P2;PMS_P1;PMS_P2;Temp;Humidity;BMP_temperature;BMP_pressure;BME280_temperature;BME280_humidity;BME280_pressure;Samples;Min_cycle;Max_cycle;Signal;HPM_P1;HPM_P2
2022/01/14 00:00:43;;;;;;;89.00;24.90;;;;;;;8.61;100.00;103655.00;5056040;28;20167;-44
2022/01/14 00:03:10;;;;;;;102.53;26.92;;;;;;;8.58;100.00;103650.72;5074017;28;20115;-46
2022/01/14 00:05:35;;;;;;;96.30;27.70;;;;;;;8.39;100.00;103653.00;5073468;28;20033;-49
2022/01/14 00:08:00;;;;;;;91.80;26.57;;;;;;;8.50;100.00;103633.59;5073719;28;20063;-46
2022/01/14 00:10:30;;;;;;;84.63;26.70;;;;;;;8.66;100.00;103638.66;5056158;28;20036;-44
2022/01/14 00:13:04;;;;;;;79.20;25.55;;;;;;;9.01;100.00;103636.03;5074075;28;20041;-49
2022/01/14 00:15:34;;;;;;;99.10;26.38;;;;;;;9.22;100.00;103639.84;5057044;28;20101;-44
2022/01/14 00:18:01;;;;;;;100.07;26.63;;;;;;;8.99;100.00;103637.09;5073329;28;20063;-47
2022/01/14 00:20:27;;;;;;;91.80;26.25;;;;;;;8.58;100.00;103636.56;5055735;28;20420;-48
2022/01/14 00:22:52;;;;;;;102.00;27.00;;;;;;;8.70;100.00;103624.97;5055326;28;20024;-45
2022/01/14 00:33:27;;;;;;;99.30;25.52;;;;;;;8.22;100.00;103622.25;5054778;28;20036;-44
2022/01/14 00:35:53;;;;;;;114.80;26.40;;;;;;;8.44;100.00;103597.53;5055100;28;20032;-46
2022/01/14 00:38:20;;;;;;;93.10;24.73;;;;;;;8.42;100.00;103612.78;5073153;28;20697;-46
2022/01/14 00:40:45;;;;;;;114.07;24.60;;;;;;;8.42;100.00;103602.97;5055076;28;20099;-44
2022/01/14 00:43:11;;;;;;;89.47;26.73;;;;;;;8.14;100.00;103599.66;5073415;28;20034;-45
2022/01/14 00:45:39;;;;;;;111.25;25.25;;;;;;;8.27;100.00;103596.97;5072836;28;20067;-44
2022/01/14 00:48:04;;;;;;;102.38;25.33;;;;;;;8.51;100.00;103597.94;5073358;28;20122;-43
2022/01/14 00:50:31;;;;;;;92.60;25.85;;;;;;;8.71;100.00;103591.97;5055146;28;20068;-44
2022/01/14 00:52:56;;;;;;;96.72;25.65;;;;;;;8.98;100.00;103596.19;5072965;28;20067;-45
2022/01/14 00:55:28;;;;;;;105.47;27.50;;;;;;;8.65;100.00;103589.78;5054555;28;20491;-46
2022/01/14 01:00:31;;;;;;;67.32;22.38;;;;;;;8.94;100.00;103592.06;5072894;28;20032;-47
2022/01/14 01:02:56;;;;;;;111.80;26.95;;;;;;;8.77;100.00;103592.50;5072850;28;20365;-47
2022/01/14 01:05:22;;;;;;;115.17;26.60;;;;;;;8.51;100.00;103593.47;5072320;28;20040;-44
2022/01/14 01:08:04;;;;;;;108.10;25.13;;;;;;;8.34;100.00;103597.38;5072535;28;20504;-43
2022/01/14 01:10:31;;;;;;;101.47;26.55;;;;;;;8.49;100.00;103599.84;5073051;28;20048;-44
2022/01/14 01:13:05;;;;;;;92.32;24.80;;;;;;;8.32;100.00;103586.81;5072692;28;20040;-46
2022/01/14 01:15:30;;;;;;;91.50;24.13;;;;;;;8.04;100.00;103585.28;5055136;28;20044;-43
2022/01/14 01:17:56;;;;;;;120.47;28.88;;;;;;;8.27;100.00;103585.44;5073656;28;20029;-48
2022/01/14 01:20:22;;;;;;;92.60;27.47;;;;;;;8.33;100.00;103588.50;5055303;28;20051;-45
2022/01/14 01:22:50;;;;;;;83.43;23.95;;;;;;;8.43;100.00;103587.84;5055414;28;20035;-43
2022/01/14 01:25:38;;;;;;;104.53;27.02;;;;;;;9.00;100.00;103580.94;5055990;28;20048;-45
2022/01/14 01:28:04;;;;;;;97.10;24.13;;;;;;;8.39;100.00;103586.34;5073442;28;20457;-43
2022/01/14 01:32:57;;;;;;;109.73;25.30;;;;;;;8.32;100.00;103583.31;5055282;28;20479;-45
2022/01/14 01:35:22;;;;;;;92.72;26.30;;;;;;;8.65;100.00;103584.44;5055096;28;20269;-45
2022/01/14 01:37:48;;;;;;;109.13;23.52;;;;;;;8.82;100.00;103571.66;5055080;28;20395;-43
2022/01/14 01:40:15;;;;;;;84.90;23.90;;;;;;;8.80;100.00;103578.94;5055705;28;20052;-44
2022/01/14 01:42:44;;;;;;;86.85;23.05;;;;;;;8.84;100.00;103581.22;5072990;28;20063;-44
2022/01/14 01:45:12;;;;;;;111.75;25.23;;;;;;;8.32;100.00;103585.97;5056142;28;20036;-43
2022/01/14 01:47:39;;;;;;;65.40;23.05;;;;;;;8.36;100.00;103592.78;5058988;28;20032;-46
2022/01/14 01:50:13;;;;;;;65.70;21.60;;;;;;;7.89;100.00;103606.75;5077350;28;20085;-43
2022/01/14 01:52:39;;;;;;;94.53;25.38;;;;;;;8.18;100.00;103601.16;5077781;28;20045;-43
2022/01/14 01:55:06;;;;;;;61.08;19.30;;;;;;;8.86;100.00;103595.31;5077043;28;20044;-43
2022/01/14 01:57:31;;;;;;;81.30;26.08;;;;;;;9.06;100.00;103590.28;5076279;28;20032;-44
2022/01/14 01:59:57;;;;;;;64.88;26.05;;;;;;;8.92;100.00;103593.16;5077088;28;20048;-46
2022/01/14 02:02:23;;;;;;;91.82;26.02;;;;;;;8.30;100.00;103588.72;5059071;28;20032;-43
2022/01/14 02:04:48;;;;;;;74.50;23.43;;;;;;;8.64;100.00;103597.88;5077041;28;20032;-45
2022/01/14 02:07:14;;;;;;;73.80;24.58;;;;;;;8.86;100.00;103589.97;5058794;28;20091;-43
2022/01/14 02:09:40;;;;;;;89.70;25.10;;;;;;;8.73;100.00;103591.88;5058959;28;20349;-44
2022/01/14 02:12:09;;;;;;;100.20;25.43;;;;;;;8.40;100.00;103572.91;5077293;28;20047;-47
2022/01/14 02:23:02;;;;;;;68.50;23.35;;;;;;;8.92;100.00;103577.16;5014550;28;20060;-46
2022/01/14 02:25:29;;;;;;;101.20;26.33;;;;;;;9.00;100.00;103583.59;5014412;28;20133;-44
2022/01/14 02:27:59;;;;;;;95.45;26.08;;;;;;;9.07;100.00;103573.28;5052441;28;20140;-44
2022/01/14 02:30:26;;;;;;;85.40;26.90;;;;;;;9.02;100.00;103580.81;5076985;28;20045;-43
2022/01/14 02:32:52;;;;;;;81.53;24.40;;;;;;;9.24;100.00;103569.34;5076772;28;20037;-48
2022/01/14 02:35:17;;;;;;;87.78;23.83;;;;;;;9.04;100.00;103561.03;5076010;28;20043;-45
2022/01/14 02:37:43;;;;;;;95.43;24.93;;;;;;;8.96;100.00;103560.75;5076175;28;20360;-45
2022/01/14 02:40:09;;;;;;;92.25;23.77;;;;;;;9.00;100.00;103556.91;5075941;28;20040;-45
2022/01/14 02:42:36;;;;;;;76.72;24.77;;;;;;;8.93;100.00;103558.34;5058296;28;20377;-50
2022/01/14 02:45:06;;;;;;;92.15;28.00;;;;;;;8.88;100.00;103560.50;5075872;28;20119;-46
2022/01/14 02:47:31;;;;;;;88.47;25.33;;;;;;;9.14;100.00;103553.19;5076800;28;20338;-47
2022/01/14 02:49:57;;;;;;;106.97;27.13;;;;;;;8.77;100.00;103553.31;5075753;28;20032;-45
2022/01/14 02:52:30;;;;;;;91.23;25.77;;;;;;;8.90;100.00;103553.22;5075811;28;20033;-48
2022/01/14 02:55:13;;;;;;;108.55;26.65;;;;;;;8.69;100.00;103540.56;5058020;28;20036;-44
2022/01/14 02:57:40;;;;;;;122.35;30.35;;;;;;;8.49;100.00;103543.84;5059409;28;20532;-44
2022/01/14 03:00:07;;;;;;;94.40;25.30;;;;;;;9.01;100.00;103542.59;5075515;28;20424;-47
2022/01/14 03:02:35;;;;;;;95.80;25.17;;;;;;;8.48;100.00;103543.00;5075504;28;20036;-44
2022/01/14 03:05:01;;;;;;;89.03;25.70;;;;;;;8.68;100.00;103538.03;5057830;28;20101;-45
2022/01/14 03:07:27;;;;;;;102.82;25.17;;;;;;;8.15;100.00;103531.19;5075831;28;20083;-42
2022/01/14 03:09:53;;;;;;;94.45;24.95;;;;;;;8.47;100.00;103534.13;5076227;28;20453;-43
2022/01/14 03:12:19;;;;;;;104.78;25.80;;;;;;;8.20;100.00;103544.19;5075971;28;20029;-44
2022/01/14 03:14:45;;;;;;;85.18;26.95;;;;;;;8.34;100.00;103544.03;5058139;28;20036;-44
2022/01/14 03:17:11;;;;;;;92.80;26.17;;;;;;;8.42;100.00;103540.78;5075532;28;20037;-44
2022/01/14 03:19:37;;;;;;;116.30;26.02;;;;;;;8.74;100.00;103543.72;5057349;28;20063;-43
2022/01/14 03:22:07;;;;;;;123.45;26.27;;;;;;;8.44;100.00;103537.03;5057301;28;20036;-45
2022/01/14 03:27:01;;;;;;;94.63;26.08;;;;;;;8.95;100.00;103540.38;5075614;28;20040;-48
2022/01/14 03:29:27;;;;;;;107.70;28.13;;;;;;;8.59;100.00;103540.41;5075198;28;20040;-47
2022/01/14 03:31:52;;;;;;;72.20;24.97;;;;;;;8.99;100.00;103544.50;5075067;28;20517;-44
2022/01/14 03:34:18;;;;;;;100.20;27.53;;;;;;;9.04;100.00;103544.16;5057086;28;20090;-43
2022/01/14 03:36:45;;;;;;;134.50;26.77;;;;;;;8.84;100.00;103543.88;5057381;28;20028;-42
2022/01/14 03:39:11;;;;;;;87.40;23.48;;;;;;;8.74;100.00;103533.03;5075192;28;20033;-43
2022/01/14 03:41:36;;;;;;;100.68;25.65;;;;;;;8.26;100.00;103543.72;5074755;28;20043;-47
2022/01/14 03:44:03;;;;;;;85.70;24.90;;;;;;;8.42;100.00;103533.63;5057203;28;20040;-43
2022/01/14 03:46:28;;;;;;;;;;;;;;;8.39;100.00;103539.22;5057533;28;20307;-46
2022/01/14 03:48:54;;;;;;;73.90;24.93;;;;;;;8.47;100.00;103530.63;5074625;28;20039;-42
2022/01/14 03:51:22;;;;;;;83.20;24.80;;;;;;;8.65;100.00;103539.09;5074583;28;20036;-46
2022/01/14 03:53:48;;;;;;;99.35;25.77;;;;;;;8.73;100.00;103531.34;5074856;28;20479;-45
2022/01/14 03:56:15;;;;;;;127.03;28.27;;;;;;;8.05;100.00;103523.03;5074736;28;20033;-47
2022/01/14 03:58:40;;;;;;;;;;;;;;;7.99;100.00;103532.34;5040452;28;20037;-48
2022/01/14 04:01:07;;;;;;;107.87;27.17;;;;;;;8.10;100.00;103530.69;5056450;28;20303;-45
2022/01/14 04:03:33;;;;;;;78.97;25.08;;;;;;;8.58;100.00;103527.19;5057126;28;20203;-46
2022/01/14 04:05:59;;;;;;;100.22;26.52;;;;;;;8.29;100.00;103519.50;5074886;28;20128;-47
2022/01/14 04:08:25;;;;;;;91.22;27.40;;;;;;;7.97;100.00;103518.28;5074379;28;20040;-47
2022/01/14 04:10:53;;;;;;;59.13;20.48;;;;;;;8.63;100.00;103524.16;5074905;28;20086;-42
2022/01/14 04:13:23;;;;;;;84.03;25.30;;;;;;;8.61;100.00;103514.44;5074641;28;20080;-43
2022/01/14 04:15:49;;;;;;;86.20;27.10;;;;;;;8.11;100.00;103525.25;5057436;28;20041;-44
2022/01/14 04:18:19;;;;;;;141.57;28.17;;;;;;;7.80;100.00;103514.16;5074348;28;20376;-43
2022/01/14 04:20:47;;;;;;;90.80;25.35;;;;;;;8.22;100.00;103504.94;5074232;28;20804;-44
2022/01/14 04:23:15;;;;;;;90.55;26.77;;;;;;;8.36;100.00;103501.25;5073999;28;20021;-48
2022/01/14 04:25:41;;;;;;;89.93;24.00;;;;;;;8.08;100.00;103505.97;5056030;28;20472;-46
2022/01/14 04:28:10;;;;;;;82.63;24.80;;;;;;;8.57;100.00;103504.16;5074458;28;20036;-44
2022/01/14 04:30:35;;;;;;;;;;;;;;;8.49;100.00;103503.84;5039855;28;20469;-48
2022/01/14 04:33:02;;;;;;;88.17;26.50;;;;;;;8.83;100.00;103487.97;5074248;28;19912;-46
2022/01/14 04:35:29;;;;;;;110.90;26.33;;;;;;;8.31;100.00;103494.44;5057027;28;20017;-43
2022/01/14 04:37:54;;;;;;;94.13;24.67;;;;;;;8.22;100.00;103483.63;5074097;28;20117;-43
2022/01/14 04:40:20;;;;;;;99.80;27.85;;;;;;;8.32;100.00;103484.66;5074215;28;20721;-43
2022/01/14 04:42:46;;;;;;;106.70;27.23;;;;;;;8.24;100.00;103492.34;5073826;28;20477;-45
2022/01/14 04:45:26;;;;;;;101.53;26.77;;;;;;;8.21;100.00;103481.91;5073613;28;20086;-44
2022/01/14 04:47:51;;;;;;;98.57;24.77;;;;;;;8.59;100.00;103483.53;5074172;28;20111;-44
2022/01/14 04:50:19;;;;;;;95.65;22.75;;;;;;;8.19;100.00;103476.72;5074128;28;20422;-44
2022/01/14 04:52:47;;;;;;;95.47;27.88;;;;;;;7.99;100.00;103479.03;5074531;28;20032;-46
2022/01/14 04:55:15;;;;;;;85.03;26.08;;;;;;;8.32;100.00;103474.81;5074357;28;20123;-47
2022/01/14 04:57:42;;;;;;;86.40;25.33;;;;;;;8.74;100.00;103478.84;5074280;28;20040;-44
2022/01/14 05:00:12;;;;;;;102.15;26.67;;;;;;;8.78;100.00;103474.13;5073425;28;20032;-45
2022/01/14 05:02:38;;;;;;;86.28;26.85;;;;;;;9.10;100.00;103468.09;5073867;28;20064;-47
2022/01/14 05:05:05;;;;;;;70.22;24.88;;;;;;;8.54;100.00;103467.88;5073851;28;20049;-51
2022/01/14 05:07:31;;;;;;;99.20;27.77;;;;;;;8.03;100.00;103456.53;5073803;28;20366;-47
2022/01/14 05:12:29;;;;;;;132.93;28.02;;;;;;;8.55;100.00;103444.75;5056427;28;20127;-43
2022/01/14 05:14:54;;;;;;;;;;;;;;;8.68;100.00;103448.16;5073844;28;20040;-47
2022/01/14 05:17:20;;;;;;;92.73;25.67;;;;;;;8.61;100.00;103430.94;5073551;28;19913;-46
2022/01/14 05:19:46;;;;;;;84.37;26.03;;;;;;;9.13;100.00;103435.81;5054931;28;20032;-46
2022/01/14 05:22:11;;;;;;;71.15;25.02;;;;;;;9.24;100.00;103440.28;5073496;28;20650;-48
2022/01/14 05:24:37;;;;;;;109.65;26.85;;;;;;;8.66;100.00;103444.75;5073302;28;20036;-44
2022/01/14 05:27:03;;;;;;;66.07;24.60;;;;;;;9.04;100.00;103448.94;5055497;28;20518;-43
2022/01/14 05:29:28;;;;;;;113.03;25.33;;;;;;;8.94;100.00;103463.13;5073229;28;20075;-47
2022/01/14 05:32:02;;;;;;;79.27;24.87;;;;;;;9.12;100.00;103458.13;5055113;28;20041;-48
2022/01/14 05:34:28;;;;;;;94.93;25.10;;;;;;;9.04;100.00;103456.94;5073092;28;20033;-43
2022/01/14 05:36:54;;;;;;;143.57;26.85;;;;;;;8.71;100.00;103471.91;5073319;28;20116;-45
2022/01/14 05:39:20;;;;;;;154.47;26.53;;;;;;;8.93;100.00;103467.59;5055107;28;20095;-50
2022/01/14 05:41:49;;;;;;;107.35;25.98;;;;;;;8.84;100.00;103462.97;5055339;28;20384;-48
2022/01/14 05:44:15;;;;;;;100.38;23.10;;;;;;;8.91;100.00;103466.03;5055514;28;20114;-48
2022/01/14 05:46:40;;;;;;;81.40;23.10;;;;;;;8.65;100.00;103464.41;5074075;28;20041;-44
2022/01/14 05:49:06;;;;;;;83.43;22.43;;;;;;;8.64;100.00;103469.84;5055363;28;20090;-44
2022/01/14 05:51:32;;;;;;;100.83;24.00;;;;;;;9.09;100.00;103469.91;5055661;28;20361;-44
2022/01/14 05:53:57;;;;;;;104.28;24.73;;;;;;;8.40;100.00;103463.56;5072981;28;20521;-44
2022/01/14 05:56:23;;;;;;;110.15;24.02;;;;;;;8.70;100.00;103480.88;5073092;28;20029;-44
2022/01/14 05:58:48;;;;;;;68.97;22.00;;;;;;;9.16;100.00;103467.59;5073395;28;20128;-48
2022/01/14 06:01:14;;;;;;;82.00;23.67;;;;;;;8.62;100.00;103469.97;5073082;28;20360;-48
2022/01/14 06:03:40;;;;;;;90.87;23.83;;;;;;;8.74;100.00;103473.50;5022108;28;20029;-46
2022/01/14 06:06:05;;;;;;;153.98;26.95;;;;;;;8.85;100.00;103470.84;5055258;28;20037;-44
2022/01/14 06:08:31;;;;;;;120.53;24.23;;;;;;;9.06;100.00;103471.97;5054934;28;20514;-44
2022/01/14 06:10:56;;;;;;;63.20;21.65;;;;;;;9.17;100.00;103475.50;5038834;28;20044;-45
2022/01/14 06:13:22;;;;;;;85.55;22.73;;;;;;;8.74;100.00;103463.66;5038288;28;20032;-48
2022/01/14 06:15:48;;;;;;;106.22;23.92;;;;;;;8.43;100.00;103470.50;5072600;28;20041;-48
2022/01/14 06:18:13;;;;;;;88.87;21.13;;;;;;;8.63;100.00;103468.13;5072258;28;20127;-45
2022/01/14 06:20:39;;;;;;;88.00;23.90;;;;;;;8.58;100.00;103468.50;5072956;28;20040;-46
2022/01/14 06:23:04;;;;;;;73.73;21.23;;;;;;;8.64;100.00;103467.16;5072657;28;20028;-45
2022/01/14 06:25:30;;;;;;;111.30;24.13;;;;;;;8.70;100.00;103458.72;5072682;28;20064;-43
2022/01/14 06:27:55;;;;;;;92.53;23.57;;;;;;;8.81;100.00;103457.88;5072742;28;20032;-43
2022/01/14 06:30:21;;;;;;;107.57;23.20;;;;;;;8.64;100.00;103457.34;5051545;28;20056;-46
2022/01/14 06:32:54;;;;;;;142.75;25.92;;;;;;;8.70;100.00;103456.03;5056569;28;20087;-43
2022/01/14 06:35:20;;;;;;;93.35;21.70;;;;;;;8.89;100.00;103452.78;5056733;28;20052;-47
2022/01/14 06:37:45;;;;;;;128.38;23.27;;;;;;;8.14;100.00;103441.53;5038133;28;20041;-43
2022/01/14 06:40:12;;;;;;;72.95;16.45;;;;;;;8.22;100.00;103446.28;5055005;28;20052;-45
2022/01/14 06:42:37;;;;;;;108.22;23.23;;;;;;;8.43;100.00;103455.34;5054722;28;20120;-46
2022/01/14 06:45:05;;;;;;;97.72;21.52;;;;;;;8.73;100.00;103459.31;5055086;28;20076;-43
2022/01/14 06:47:31;;;;;;;119.32;24.38;;;;;;;8.83;100.00;103461.28;5054806;28;20037;-50
2022/01/14 06:49:57;;;;;;;105.80;25.13;;;;;;;8.58;100.00;103463.19;5054840;28;20390;-46
2022/01/14 06:52:23;;;;;;;94.43;21.63;;;;;;;8.78;100.00;103479.47;5056085;28;20453;-49
2022/01/14 06:54:49;;;;;;;86.57;21.20;;;;;;;8.59;100.00;103470.22;5055717;28;20745;-49
2022/01/14 06:57:15;;;;;;;154.23;23.55;;;;;;;8.30;100.00;103466.06;5054385;28;20075;-45
2022/01/14 06:59:41;;;;;;;107.47;22.52;;;;;;;8.62;100.00;103461.97;5054548;28;20461;-49
2022/01/14 07:02:06;;;;;;;100.90;22.25;;;;;;;8.46;100.00;103468.44;5054216;28;20044;-47
2022/01/14 07:04:33;;;;;;;87.88;22.08;;;;;;;8.83;100.00;103467.44;5056083;28;20033;-49
2022/01/14 07:06:58;;;;;;;;;;;;;;;8.86;100.00;103455.69;5055248;28;20051;-45
2022/01/14 07:09:24;;;;;;;107.53;21.13;;;;;;;8.61;100.00;103463.78;5055672;28;20345;-43
2022/01/14 07:11:56;;;;;;;112.75;21.42;;;;;;;8.52;100.00;103451.16;5054949;28;20036;-43
2022/01/14 07:14:21;;;;;;;117.30;21.05;;;;;;;8.59;100.00;103467.53;5054060;28;20072;-48
2022/01/14 07:16:47;;;;;;;171.38;25.88;;;;;;;8.63;100.00;103476.13;5055197;28;20136;-46
2022/01/14 07:19:15;;;;;;;85.32;20.85;;;;;;;8.58;100.00;103469.34;5055297;28;20071;-48
2022/01/14 07:21:41;;;;;;;97.68;22.80;;;;;;;8.03;100.00;103461.00;5055181;28;20065;-49
2022/01/14 07:24:06;;;;;;;83.27;20.63;;;;;;;8.04;100.00;103470.69;5055274;28;20116;-48
2022/01/14 07:26:32;;;;;;;90.50;21.73;;;;;;;8.04;100.00;103460.88;5055645;28;20741;-44
2022/01/14 07:28:59;;;;;;;108.32;20.98;;;;;;;8.51;100.00;103464.59;5053961;28;20049;-44
2022/01/14 07:31:24;;;;;;;85.47;18.77;;;;;;;7.73;100.00;103462.28;5054495;28;20056;-45
2022/01/14 07:33:50;;;;;;;73.77;19.03;;;;;;;8.07;100.00;103443.78;5053574;28;20032;-43
2022/01/14 07:36:15;;;;;;;108.87;22.00;;;;;;;8.06;100.00;103446.59;5053922;28;20356;-44
2022/01/14 07:38:41;;;;;;;118.80;21.55;;;;;;;8.36;100.00;103464.78;5054350;28;20040;-44
2022/01/14 07:41:06;;;;;;;72.83;20.60;;;;;;;7.86;100.00;103447.13;5053542;28;20029;-43
2022/01/14 07:43:34;;;;;;;110.50;22.90;;;;;;;7.66;100.00;103448.56;5053534;28;20495;-49
2022/01/14 07:46:00;;;;;;;97.28;21.40;;;;;;;7.88;100.00;103470.97;5054017;28;20106;-47
2022/01/14 07:48:26;;;;;;;111.70;23.50;;;;;;;8.30;100.00;103460.75;5053465;28;20473;-48
2022/01/14 07:50:51;;;;;;;100.95;22.63;;;;;;;8.08;100.00;103448.19;5053705;28;20036;-48
2022/01/14 07:53:17;;;;;;;157.10;24.63;;;;;;;8.38;100.00;103462.84;5054978;28;20063;-46
2022/01/14 07:55:43;;;;;;;91.60;20.98;;;;;;;8.27;100.00;103474.31;5053475;28;20457;-47
2022/01/14 07:58:08;;;;;;;104.20;24.08;;;;;;;8.10;100.00;103480.91;5053039;28;20461;-48
2022/01/14 08:00:35;;;;;;;108.13;23.75;;;;;;;8.51;100.00;103491.25;5053142;28;20041;-44
2022/01/14 08:03:01;;;;;;;129.77;23.85;;;;;;;8.53;100.00;103489.31;5055043;28;20036;-44
2022/01/14 08:05:27;;;;;;;97.43;23.63;;;;;;;8.62;100.00;103491.31;5054896;28;20120;-43
2022/01/14 08:07:56;;;;;;;108.40;24.67;;;;;;;8.95;100.00;103476.31;5054244;28;20067;-50
2022/01/14 08:10:21;;;;;;;105.88;22.60;;;;;;;8.96;100.00;103488.69;5053927;28;20045;-45
2022/01/14 08:12:47;;;;;;;97.33;22.53;;;;;;;9.05;100.00;103476.44;5054534;28;20511;-48
2022/01/14 08:15:13;;;;;;;69.73;22.27;;;;;;;8.68;100.00;103469.50;5054430;28;20270;-46
2022/01/14 08:17:39;;;;;;;75.40;22.50;;;;;;;8.35;100.00;103480.88;5053222;28;20126;-44
2022/01/14 08:20:06;;;;;;;119.25;23.33;;;;;;;8.32;100.00;103489.97;5053017;28;20040;-45
2022/01/14 08:22:32;;;;;;;92.90;23.02;;;;;;;8.62;100.00;103472.63;5053914;28;20033;-46
2022/01/14 08:24:58;;;;;;;95.43;22.13;;;;;;;8.68;100.00;103485.50;5052736;28;20044;-44
2022/01/14 08:27:26;;;;;;;113.75;22.48;;;;;;;8.51;100.00;103480.59;5036296;28;20037;-42
2022/01/14 08:29:55;;;;;;;108.28;21.83;;;;;;;8.60;100.00;103477.25;5066505;28;20053;-43
2022/01/14 08:32:22;;;;;;;86.10;23.55;;;;;;;8.44;100.00;103481.03;5039825;28;20044;-51
2022/01/14 08:34:48;;;;;;;127.75;25.63;;;;;;;8.17;100.00;103460.81;5056091;28;20059;-48
2022/01/14 08:37:14;;;;;;;112.43;24.20;;;;;;;8.22;100.00;103467.63;5074640;28;20102;-46
2022/01/14 08:39:40;;;;;;;85.13;21.20;;;;;;;8.44;100.00;103467.69;5055855;28;20452;-44
2022/01/14 08:42:08;;;;;;;104.63;23.33;;;;;;;8.26;100.00;103459.28;5073955;28;20032;-45
2022/01/14 08:44:36;;;;;;;58.05;20.85;;;;;;;8.22;100.00;103468.47;5073500;28;20084;-43
2022/01/14 08:47:04;;;;;;;119.88;24.23;;;;;;;8.15;100.00;103476.09;5073720;28;20040;-46
2022/01/14 08:49:30;;;;;;;89.68;22.77;;;;;;;8.59;100.00;103475.53;5073742;28;20094;-46
2022/01/14 08:51:56;;;;;;;83.75;21.58;;;;;;;8.34;100.00;103472.03;5056702;28;20032;-50
2022/01/14 08:54:21;;;;;;;73.93;20.13;;;;;;;8.15;100.00;103478.75;5055212;28;20033;-47
2022/01/14 08:56:47;;;;;;;87.13;22.27;;;;;;;8.61;100.00;103485.13;5055706;28;20066;-46
2022/01/14 08:59:16;;;;;;;72.97;22.37;;;;;;;8.57;100.00;103498.81;5055981;28;20033;-46
2022/01/14 09:01:42;;;;;;;95.63;22.60;;;;;;;9.14;100.00;103496.25;5073789;28;20316;-44
2022/01/14 09:04:08;;;;;;;63.33;21.65;;;;;;;8.78;100.00;103484.81;5056410;28;20436;-45
2022/01/14 09:06:34;;;;;;;73.90;22.50;;;;;;;8.97;100.00;103490.41;5073868;28;20101;-44
2022/01/14 09:08:59;;;;;;;61.63;21.52;;;;;;;9.11;100.00;103496.50;5055315;28;20081;-45
2022/01/14 09:11:25;;;;;;;67.80;23.10;;;;;;;9.41;100.00;103503.03;5073548;28;20452;-45
2022/01/14 09:13:50;;;;;;;60.33;20.17;;;;;;;9.36;100.00;103500.75;5073207;28;20272;-46
2022/01/14 09:16:20;;;;;;;66.23;20.43;;;;;;;9.36;100.00;103499.88;5073478;28;20048;-46
2022/01/14 09:18:47;;;;;;;58.47;19.83;;;;;;;8.99;100.00;103499.13;5073656;28;20137;-45
2022/01/14 09:21:12;;;;;;;51.58;20.77;;;;;;;8.93;100.00;103494.28;5055306;28;20392;-45
2022/01/14 09:23:38;;;;;;;58.45;20.15;;;;;;;9.13;100.00;103499.88;5055599;28;20044;-45
2022/01/14 09:26:04;;;;;;;66.95;21.83;;;;;;;8.98;100.00;103496.59;5073662;28;20203;-46
2022/01/14 09:28:29;;;;;;;60.77;22.00;;;;;;;8.93;100.00;103498.78;5072832;28;20041;-46
2022/01/14 09:30:56;;;;;;;58.25;21.60;;;;;;;9.30;100.00;103495.88;5073149;28;20040;-44
2022/01/14 09:33:22;;;;;;;66.38;20.83;;;;;;;9.12;100.00;103501.72;5073344;28;20032;-44
2022/01/14 09:35:48;;;;;;;50.33;20.45;;;;;;;9.33;100.00;103499.16;5072820;28;20131;-44
2022/01/14 09:38:14;;;;;;;62.13;18.42;;;;;;;9.30;100.00;103501.22;5073176;28;20483;-43
2022/01/14 09:40:43;;;;;;;48.40;18.47;;;;;;;9.46;100.00;103506.22;5055299;28;20043;-49
2022/01/14 09:43:11;;;;;;;52.72;18.95;;;;;;;9.54;100.00;103501.09;5072802;28;20040;-48
2022/01/14 09:45:37;;;;;;;58.05;20.45;;;;;;;9.43;100.00;103498.41;5073535;28;20170;-47
2022/01/14 09:48:02;;;;;;;46.43;17.83;;;;;;;9.62;100.00;103500.50;5054945;28;20437;-43
2022/01/14 09:50:28;;;;;;;42.25;18.55;;;;;;;9.77;100.00;103495.72;5055003;28;20277;-47
2022/01/14 09:52:54;;;;;;;51.60;20.02;;;;;;;9.48;100.00;103498.94;5055074;28;20095;-46
2022/01/14 09:55:22;;;;;;;43.10;18.60;;;;;;;9.06;100.00;103494.16;5073144;28;20029;-47
2022/01/14 09:57:48;;;;;;;52.45;19.23;;;;;;;9.14;100.00;103493.56;5072787;28;20037;-46
2022/01/14 10:00:14;;;;;;;59.20;22.60;;;;;;;9.20;100.00;103492.25;5055622;28;20032;-46
2022/01/14 10:02:43;;;;;;;47.05;19.80;;;;;;;9.44;100.00;103497.44;5072725;28;20105;-46
2022/01/14 10:05:29;;;;;;;57.13;20.75;;;;;;;8.99;100.00;103492.97;5055115;28;20037;-47
2022/01/14 10:08:21;;;;;;;51.78;21.95;;;;;;;9.21;100.00;103501.97;5058746;28;20049;-45
2022/01/14 10:11:01;;;;;;;55.55;20.98;;;;;;;9.20;100.00;103495.75;5076680;28;20477;-45
2022/01/14 10:13:28;;;;;;;68.63;22.60;;;;;;;9.24;100.00;103504.38;5058624;28;20082;-44
2022/01/14 10:16:07;;;;;;;73.07;24.70;;;;;;;9.37;100.00;103505.13;5077037;28;20039;-43
2022/01/14 10:18:34;;;;;;;87.13;30.35;;;;;;;9.10;100.00;103502.78;5077059;28;20036;-44
2022/01/14 10:21:02;;;;;;;81.05;27.58;;;;;;;9.59;100.00;103508.75;5076555;28;20047;-46
2022/01/14 10:23:46;;;;;;;85.50;29.48;;;;;;;9.73;100.00;103513.81;5059183;28;20032;-44
2022/01/14 10:26:13;;;;;;;82.85;29.15;;;;;;;9.84;100.00;103509.44;5058928;28;20476;-43
2022/01/14 10:28:39;;;;;;;97.53;29.65;;;;;;;10.03;100.00;103506.09;5058065;28;20510;-47
2022/01/14 10:31:08;;;;;;;84.28;28.15;;;;;;;10.01;100.00;103516.06;5058805;28;20029;-47
2022/01/14 10:33:34;;;;;;;101.47;30.15;;;;;;;9.95;100.00;103500.53;5076643;28;20039;-46
2022/01/14 10:36:00;;;;;;;86.17;27.87;;;;;;;9.71;100.00;103504.25;5057752;28;20044;-49
2022/01/14 10:38:36;;;;;;;80.18;26.90;;;;;;;9.87;100.00;103502.00;5058519;28;20717;-45
2022/01/14 10:41:07;;;;;;;77.28;27.17;;;;;;;9.83;100.00;103503.22;5041892;28;20059;-49
2022/01/14 10:43:38;;;;;;;65.53;24.48;;;;;;;9.73;100.00;103496.94;5076089;28;20036;-50
2022/01/14 10:46:09;;;;;;;65.88;24.73;;;;;;;9.65;100.00;103504.72;5058052;28;20040;-48
2022/01/14 10:48:40;;;;;;;63.25;23.67;;;;;;;9.66;100.00;103488.56;5058131;28;20149;-51
2022/01/14 10:51:10;;;;;;;52.92;22.98;;;;;;;9.95;100.00;103485.34;5058803;28;20040;-46
2022/01/14 10:53:37;;;;;;;56.60;23.00;;;;;;;10.05;100.00;103488.09;5075931;28;20067;-45
2022/01/14 10:56:12;;;;;;;54.90;22.85;;;;;;;10.09;100.00;103484.19;5075874;28;20040;-45
2022/01/14 10:58:43;;;;;;;67.93;23.95;;;;;;;10.16;100.00;103493.44;5057617;28;20082;-45
2022/01/14 11:01:13;;;;;;;60.83;24.67;;;;;;;10.33;100.00;103488.47;5075645;28;20090;-45
2022/01/14 11:03:53;;;;;;;53.42;23.70;;;;;;;10.10;100.00;103483.22;5057783;28;20036;-44
2022/01/14 11:06:29;;;;;;;57.35;21.67;;;;;;;10.09;100.00;103486.03;5058303;28;20071;-46
2022/01/14 11:08:57;;;;;;;56.03;24.17;;;;;;;10.00;100.00;103488.47;5076238;28;20032;-44
2022/01/14 11:11:24;;;;;;;48.45;22.13;;;;;;;10.18;100.00;103479.91;5075331;28;20035;-44
2022/01/14 11:13:49;;;;;;;52.58;23.08;;;;;;;10.44;100.00;103482.25;5075320;28;20496;-44
2022/01/14 11:16:15;;;;;;;47.33;22.63;;;;;;;10.31;100.00;103490.44;5075083;28;20040;-48
2022/01/14 11:18:41;;;;;;;51.50;22.33;;;;;;;10.33;100.00;103489.34;5074384;28;20078;-44
2022/01/14 11:23:51;;;;;;;51.72;21.83;;;;;;;10.53;100.00;103483.31;5075600;28;20039;-47
2022/01/14 11:26:20;;;;;;;52.55;23.60;;;;;;;10.62;100.00;103485.22;5075394;28;20029;-45
2022/01/14 11:28:47;;;;;;;57.75;24.75;;;;;;;10.36;100.00;103479.34;5075355;28;20053;-44
2022/01/14 11:31:29;;;;;;;47.50;22.45;;;;;;;10.04;100.00;103475.72;5075055;28;20036;-45
2022/01/14 11:33:56;;;;;;;55.25;22.65;;;;;;;10.41;100.00;103478.03;5075159;28;20107;-45
2022/01/14 11:36:22;;;;;;;40.17;21.30;;;;;;;10.26;100.00;103474.75;5075564;28;20060;-47